Terminal Aerodrome Forecast
Issued by NWS Anchorage, AK

Home | Current Version | Previous Version | Text Only | Print | Product List | Glossary On
Versions: 1 2 3 4 5 6 7 8 9 10 11 12 13 14 15 16 17 18 19 20 21 22 23 24 25 26 27 28 29 30 31 32 33 34 35 36 37 38 39
132
FTAK31 PANC 192005 AAA
TAFANC
TAF AMD
PANC 192005Z 1920/2024 VRB03KT 2SM BR BKN004
      TEMPO 1920/1922 P6SM NSW SCT004 BKN070
     FM192200 35004KT P6SM FEW005 BKN070
     FM200400 VRB03KT 1SM BR VCFG BKN003=

USA.gov is the U.S. government's official web portal to all federal, state and local government web resources and services.